sensor_id;sensor_type;location;lat;lon;timestamp;pressure;altitude;pressure_sealevel;temperature;humidity
63883;BME280;50047;50.596;30.466;2022-10-16T00:01:32;100430.38;;;10.03;48.36
63883;BME280;50047;50.596;30.466;2022-10-16T00:04:00;100426.77;;;10.01;48.36
63883;BME280;50047;50.596;30.466;2022-10-16T00:06:29;100429.11;;;10.00;48.10
63883;BME280;50047;50.596;30.466;2022-10-16T00:08:57;100428.75;;;9.96;48.01
63883;BME280;50047;50.596;30.466;2022-10-16T00:11:27;100428.46;;;9.96;48.25
63883;BME280;50047;50.596;30.466;2022-10-16T00:13:57;100425.59;;;9.92;47.95
63883;BME280;50047;50.596;30.466;2022-10-16T00:16:25;100426.91;;;9.91;48.16
63883;BME280;50047;50.596;30.466;2022-10-16T00:18:53;100423.20;;;9.92;48.08
63883;BME280;50047;50.596;30.466;2022-10-16T00:21:23;100427.56;;;9.93;48.21
63883;BME280;50047;50.596;30.466;2022-10-16T00:23:57;100427.07;;;9.90;48.13
63883;BME280;50047;50.596;30.466;2022-10-16T00:26:27;100429.45;;;9.93;48.07
63883;BME280;50047;50.596;30.466;2022-10-16T00:28:55;100430.27;;;9.93;48.09
63883;BME280;50047;50.596;30.466;2022-10-16T00:31:23;100434.29;;;9.94;47.95
63883;BME280;50047;50.596;30.466;2022-10-16T00:33:50;100431.20;;;9.92;48.12
63883;BME280;50047;50.596;30.466;2022-10-16T00:36:20;100435.25;;;9.90;48.28
63883;BME280;50047;50.596;30.466;2022-10-16T00:38:50;100435.75;;;9.88;48.35
63883;BME280;50047;50.596;30.466;2022-10-16T00:41:20;100436.56;;;9.89;48.40
63883;BME280;50047;50.596;30.466;2022-10-16T00:44:02;100438.34;;;9.89;48.50
63883;BME280;50047;50.596;30.466;2022-10-16T00:48:57;100439.25;;;9.81;48.75
63883;BME280;50047;50.596;30.466;2022-10-16T00:51:39;100440.31;;;9.80;48.77
63883;BME280;50047;50.596;30.466;2022-10-16T00:54:14;100444.48;;;9.75;49.34
63883;BME280;50047;50.596;30.466;2022-10-16T00:56:43;100444.02;;;10.14;50.32
63883;BME280;50047;50.596;30.466;2022-10-16T00:59:27;100447.83;;;10.68;50.06
63883;BME280;50047;50.596;30.466;2022-10-16T01:01:55;100445.90;;;11.00;48.91
63883;BME280;50047;50.596;30.466;2022-10-16T01:04:24;100446.60;;;11.02;48.58
63883;BME280;50047;50.596;30.466;2022-10-16T01:09:51;100453.89;;;10.85;48.21
63883;BME280;50047;50.596;30.466;2022-10-16T01:12:42;100455.07;;;10.71;48.19
63883;BME280;50047;50.596;30.466;2022-10-16T01:18:21;100452.73;;;10.41;48.69
63883;BME280;50047;50.596;30.466;2022-10-16T01:21:03;100453.61;;;10.27;48.96
63883;BME280;50047;50.596;30.466;2022-10-16T01:24:38;100461.44;;;10.18;48.91
63883;BME280;50047;50.596;30.466;2022-10-16T01:29:36;100468.05;;;10.02;49.47
63883;BME280;50047;50.596;30.466;2022-10-16T01:32:40;100466.58;;;9.95;49.47
63883;BME280;50047;50.596;30.466;2022-10-16T01:35:14;100468.64;;;9.86;50.68
63883;BME280;50047;50.596;30.466;2022-10-16T01:40:18;100471.21;;;10.01;53.24
63883;BME280;50047;50.596;30.466;2022-10-16T01:42:50;100471.02;;;10.46;53.21
63883;BME280;50047;50.596;30.466;2022-10-16T01:45:19;100476.48;;;10.71;52.25
63883;BME280;50047;50.596;30.466;2022-10-16T01:47:49;100477.92;;;10.69;51.81
63883;BME280;50047;50.596;30.466;2022-10-16T01:50:19;100473.55;;;10.58;51.69
63883;BME280;50047;50.596;30.466;2022-10-16T01:52:50;100474.78;;;10.46;51.79
63883;BME280;50047;50.596;30.466;2022-10-16T01:55:24;100474.27;;;10.33;51.96
63883;BME280;50047;50.596;30.466;2022-10-16T01:57:53;100475.59;;;10.16;52.00
63883;BME280;50047;50.596;30.466;2022-10-16T02:00:22;100478.79;;;10.04;51.71
63883;BME280;50047;50.596;30.466;2022-10-16T02:02:53;100480.65;;;9.92;51.89
63883;BME280;50047;50.596;30.466;2022-10-16T02:05:26;100476.79;;;9.82;51.97
63883;BME280;50047;50.596;30.466;2022-10-16T02:07:56;100484.51;;;9.76;52.14
63883;BME280;50047;50.596;30.466;2022-10-16T02:10:27;100485.58;;;9.63;52.06
63883;BME280;50047;50.596;30.466;2022-10-16T02:13:12;100484.55;;;9.88;53.37
63883;BME280;50047;50.596;30.466;2022-10-16T02:15:40;100484.21;;;10.36;53.17
63883;BME280;50047;50.596;30.466;2022-10-16T02:18:09;100483.33;;;10.50;52.63
63883;BME280;50047;50.596;30.466;2022-10-16T02:23:23;100485.83;;;10.41;51.88
63883;BME280;50047;50.596;30.466;2022-10-16T02:25:52;100488.50;;;10.26;51.55
63883;BME280;50047;50.596;30.466;2022-10-16T02:28:28;100489.85;;;10.11;51.58
63883;BME280;50047;50.596;30.466;2022-10-16T02:31:04;100490.39;;;9.95;51.75
63883;BME280;50047;50.596;30.466;2022-10-16T02:33:32;100491.73;;;9.83;51.72
63883;BME280;50047;50.596;30.466;2022-10-16T02:36:00;100490.18;;;9.75;51.76
63883;BME280;50047;50.596;30.466;2022-10-16T02:38:28;100495.03;;;9.59;52.39
63883;BME280;50047;50.596;30.466;2022-10-16T02:40:57;100497.06;;;9.47;52.16
63883;BME280;50047;50.596;30.466;2022-10-16T02:43:24;100495.02;;;9.33;52.71
63883;BME280;50047;50.596;30.466;2022-10-16T02:45:51;100500.57;;;9.60;53.58
63883;BME280;50047;50.596;30.466;2022-10-16T02:48:19;100498.48;;;10.04;53.54
63883;BME280;50047;50.596;30.466;2022-10-16T02:50:46;100498.20;;;10.27;52.96
63883;BME280;50047;50.596;30.466;2022-10-16T02:53:13;100497.74;;;10.32;52.38
63883;BME280;50047;50.596;30.466;2022-10-16T02:55:40;100496.90;;;10.22;52.17
63883;BME280;50047;50.596;30.466;2022-10-16T02:58:07;100500.20;;;10.10;52.06
63883;BME280;50047;50.596;30.466;2022-10-16T03:00:34;100496.27;;;9.91;52.11
63883;BME280;50047;50.596;30.466;2022-10-16T03:03:01;100500.05;;;9.76;52.52
63883;BME280;50047;50.596;30.466;2022-10-16T03:05:28;100502.38;;;9.61;52.84
63883;BME280;50047;50.596;30.466;2022-10-16T03:07:55;100507.98;;;9.47;53.05
63883;BME280;50047;50.596;30.466;2022-10-16T03:10:22;100505.91;;;9.33;52.68
63883;BME280;50047;50.596;30.466;2022-10-16T03:12:50;100512.05;;;9.14;53.46
63883;BME280;50047;50.596;30.466;2022-10-16T03:15:17;100515.16;;;9.39;54.53
63883;BME280;50047;50.596;30.466;2022-10-16T03:17:44;100521.52;;;9.88;54.45
63883;BME280;50047;50.596;30.466;2022-10-16T03:20:12;100521.84;;;10.09;53.90
63883;BME280;50047;50.596;30.466;2022-10-16T03:22:39;100520.77;;;10.05;53.71
63883;BME280;50047;50.596;30.466;2022-10-16T03:25:06;100523.48;;;9.93;53.39
63883;BME280;50047;50.596;30.466;2022-10-16T03:27:34;100525.75;;;9.84;53.23
63883;BME280;50047;50.596;30.466;2022-10-16T03:30:00;100525.33;;;9.67;53.29
63883;BME280;50047;50.596;30.466;2022-10-16T03:32:28;100524.33;;;9.54;53.28
63883;BME280;50047;50.596;30.466;2022-10-16T03:34:55;100523.10;;;9.40;53.51
63883;BME280;50047;50.596;30.466;2022-10-16T03:37:23;100524.51;;;9.28;53.68
63883;BME280;50047;50.596;30.466;2022-10-16T03:39:51;100522.60;;;9.11;53.80
63883;BME280;50047;50.596;30.466;2022-10-16T03:42:18;100529.65;;;9.33;55.03
63883;BME280;50047;50.596;30.466;2022-10-16T03:44:45;100526.73;;;9.79;54.82
63883;BME280;50047;50.596;30.466;2022-10-16T03:47:12;100521.60;;;9.97;54.19
63883;BME280;50047;50.596;30.466;2022-10-16T03:49:39;100520.12;;;9.95;53.58
63883;BME280;50047;50.596;30.466;2022-10-16T03:52:06;100523.12;;;9.86;53.31
63883;BME280;50047;50.596;30.466;2022-10-16T03:54:33;100525.16;;;9.75;53.32
63883;BME280;50047;50.596;30.466;2022-10-16T03:57:00;100528.68;;;9.59;53.24
63883;BME280;50047;50.596;30.466;2022-10-16T03:59:27;100529.23;;;9.45;53.19
63883;BME280;50047;50.596;30.466;2022-10-16T04:01:54;100526.82;;;9.32;53.39
63883;BME280;50047;50.596;30.466;2022-10-16T04:04:22;100526.05;;;9.22;53.53
63883;BME280;50047;50.596;30.466;2022-10-16T04:06:48;100527.23;;;9.07;53.78
63883;BME280;50047;50.596;30.466;2022-10-16T04:09:16;100527.70;;;9.23;55.20
63883;BME280;50047;50.596;30.466;2022-10-16T04:11:43;100529.46;;;9.60;55.36
63883;BME280;50047;50.596;30.466;2022-10-16T04:14:10;100530.98;;;9.80;54.65
63883;BME280;50047;50.596;30.466;2022-10-16T04:16:37;100531.79;;;9.80;54.34
63883;BME280;50047;50.596;30.466;2022-10-16T04:19:04;100533.14;;;9.68;53.96
63883;BME280;50047;50.596;30.466;2022-10-16T04:21:31;100539.23;;;9.53;53.97
63883;BME280;50047;50.596;30.466;2022-10-16T04:23:58;100535.77;;;9.39;53.89
63883;BME280;50047;50.596;30.466;2022-10-16T04:26:25;100541.41;;;9.23;53.99
63883;BME280;50047;50.596;30.466;2022-10-16T04:28:52;100544.88;;;9.12;54.35
63883;BME280;50047;50.596;30.466;2022-10-16T04:31:19;100549.48;;;9.05;53.68
63883;BME280;50047;50.596;30.466;2022-10-16T04:33:46;100550.27;;;8.97;54.19
63883;BME280;50047;50.596;30.466;2022-10-16T04:36:13;100553.61;;;9.23;55.18
63883;BME280;50047;50.596;30.466;2022-10-16T04:38:40;100557.55;;;9.73;54.79
63883;BME280;50047;50.596;30.466;2022-10-16T04:41:08;100562.86;;;9.95;53.99
63883;BME280;50047;50.596;30.466;2022-10-16T04:43:35;100568.73;;;10.04;53.38
63883;BME280;50047;50.596;30.466;2022-10-16T04:46:02;100573.70;;;9.93;53.12
63883;BME280;50047;50.596;30.466;2022-10-16T04:48:31;100575.71;;;9.86;52.84
63883;BME280;50047;50.596;30.466;2022-10-16T04:50:59;100582.07;;;9.81;52.64
63883;BME280;50047;50.596;30.466;2022-10-16T04:53:26;100581.44;;;9.73;52.57
63883;BME280;50047;50.596;30.466;2022-10-16T04:55:53;100582.36;;;9.64;52.19
63883;BME280;50047;50.596;30.466;2022-10-16T04:58:20;100583.17;;;9.53;52.59
63883;BME280;50047;50.596;30.466;2022-10-16T05:00:47;100584.88;;;9.48;52.49
63883;BME280;50047;50.596;30.466;2022-10-16T05:03:14;100582.25;;;9.37;52.79
63883;BME280;50047;50.596;30.466;2022-10-16T05:05:43;100587.88;;;9.62;54.02
63883;BME280;50047;50.596;30.466;2022-10-16T05:08:12;100590.61;;;10.12;53.86
63883;BME280;50047;50.596;30.466;2022-10-16T05:10:44;100592.44;;;10.44;53.03
63883;BME280;50047;50.596;30.466;2022-10-16T05:13:11;100594.48;;;10.54;52.19
63883;BME280;50047;50.596;30.466;2022-10-16T05:15:38;100597.86;;;10.54;51.64
63883;BME280;50047;50.596;30.466;2022-10-16T05:18:05;100598.69;;;10.48;51.61
63883;BME280;50047;50.596;30.466;2022-10-16T05:20:33;100602.53;;;10.44;51.18
63883;BME280;50047;50.596;30.466;2022-10-16T05:23:00;100613.02;;;10.39;51.11
63883;BME280;50047;50.596;30.466;2022-10-16T05:25:27;100616.66;;;10.34;51.09
63883;BME280;50047;50.596;30.466;2022-10-16T05:27:54;100616.34;;;10.28;51.09
63883;BME280;50047;50.596;30.466;2022-10-16T05:30:21;100616.98;;;10.25;50.98
63883;BME280;50047;50.596;30.466;2022-10-16T05:32:49;100620.65;;;10.24;50.94
63883;BME280;50047;50.596;30.466;2022-10-16T05:35:17;100623.49;;;10.22;50.87
63883;BME280;50047;50.596;30.466;2022-10-16T05:37:45;100624.30;;;10.17;51.21
63883;BME280;50047;50.596;30.466;2022-10-16T05:40:13;100625.68;;;10.41;52.02
63883;BME280;50047;50.596;30.466;2022-10-16T05:42:41;100632.10;;;10.93;51.93
63883;BME280;50047;50.596;30.466;2022-10-16T05:45:09;100632.21;;;11.25;51.04
63883;BME280;50047;50.596;30.466;2022-10-16T05:47:37;100639.19;;;11.35;50.38
63883;BME280;50047;50.596;30.466;2022-10-16T05:50:05;100642.39;;;11.38;50.16
63883;BME280;50047;50.596;30.466;2022-10-16T05:52:32;100647.13;;;11.39;49.77
63883;BME280;50047;50.596;30.466;2022-10-16T05:54:59;100652.08;;;11.25;49.85
63883;BME280;50047;50.596;30.466;2022-10-16T05:57:26;100657.38;;;11.28;49.60
63883;BME280;50047;50.596;30.466;2022-10-16T05:59:54;100656.77;;;11.16;49.72
63883;BME280;50047;50.596;30.466;2022-10-16T06:02:21;100655.55;;;11.16;49.61
63883;BME280;50047;50.596;30.466;2022-10-16T06:04:48;100659.02;;;11.15;49.56
63883;BME280;50047;50.596;30.466;2022-10-16T06:07:15;100662.49;;;11.12;49.43
63883;BME280;50047;50.596;30.466;2022-10-16T06:09:42;100662.30;;;11.13;49.50
63883;BME280;50047;50.596;30.466;2022-10-16T06:12:10;100670.86;;;11.14;49.42
63883;BME280;50047;50.596;30.466;2022-10-16T06:14:37;100672.34;;;11.16;49.48
63883;BME280;50047;50.596;30.466;2022-10-16T06:17:04;100677.94;;;11.17;49.54
63883;BME280;50047;50.596;30.466;2022-10-16T06:19:31;100683.02;;;11.21;49.09
63883;BME280;50047;50.596;30.466;2022-10-16T06:21:58;100687.81;;;11.23;49.06
63883;BME280;50047;50.596;30.466;2022-10-16T06:24:25;100684.80;;;11.23;48.98
63883;BME280;50047;50.596;30.466;2022-10-16T06:26:52;100687.77;;;11.25;48.86
63883;BME280;50047;50.596;30.466;2022-10-16T06:29:19;100686.88;;;11.30;48.74
63883;BME280;50047;50.596;30.466;2022-10-16T06:31:46;100687.90;;;11.35;48.61
63883;BME280;50047;50.596;30.466;2022-10-16T06:34:14;100686.80;;;11.41;48.43
63883;BME280;50047;50.596;30.466;2022-10-16T06:36:41;100686.55;;;11.44;48.30
63883;BME280;50047;50.596;30.466;2022-10-16T06:39:09;100693.34;;;11.49;48.27
63883;BME280;50047;50.596;30.466;2022-10-16T06:41:37;100694.10;;;11.53;48.29
63883;BME280;50047;50.596;30.466;2022-10-16T06:44:14;100700.94;;;11.66;47.96
63883;BME280;50047;50.596;30.466;2022-10-16T06:46:41;100704.70;;;11.71;47.95
63883;BME280;50047;50.596;30.466;2022-10-16T06:49:09;100703.34;;;11.73;47.79
63883;BME280;50047;50.596;30.466;2022-10-16T06:51:36;100699.30;;;11.72;47.74
63883;BME280;50047;50.596;30.466;2022-10-16T06:54:09;100699.47;;;11.71;47.92
63883;BME280;50047;50.596;30.466;2022-10-16T06:56:37;100695.86;;;11.76;47.89
63883;BME280;50047;50.596;30.466;2022-10-16T06:59:04;100699.15;;;11.80;47.91
63883;BME280;50047;50.596;30.466;2022-10-16T07:01:32;100700.77;;;11.85;47.83
63883;BME280;50047;50.596;30.466;2022-10-16T07:04:00;100706.09;;;11.97;47.70
63883;BME280;50047;50.596;30.466;2022-10-16T07:06:31;100710.00;;;11.98;47.65
63883;BME280;50047;50.596;30.466;2022-10-16T07:09:02;100709.86;;;12.06;47.72
63883;BME280;50047;50.596;30.466;2022-10-16T07:11:29;100715.81;;;12.15;47.52
63883;BME280;50047;50.596;30.466;2022-10-16T07:13:56;100718.65;;;12.25;47.40
63883;BME280;50047;50.596;30.466;2022-10-16T07:16:26;100721.00;;;12.28;47.37
63883;BME280;50047;50.596;30.466;2022-10-16T07:18:55;100723.55;;;12.35;47.33
63883;BME280;50047;50.596;30.466;2022-10-16T07:21:32;100722.11;;;12.45;47.21
63883;BME280;50047;50.596;30.466;2022-10-16T07:24:05;100723.46;;;12.58;47.21
63883;BME280;50047;50.596;30.466;2022-10-16T07:26:35;100722.23;;;12.57;47.17
63883;BME280;50047;50.596;30.466;2022-10-16T07:29:03;100722.86;;;12.61;47.11
63883;BME280;50047;50.596;30.466;2022-10-16T07:31:30;100721.77;;;12.70;47.00
63883;BME280;50047;50.596;30.466;2022-10-16T07:33:59;100723.23;;;12.77;47.10
63883;BME280;50047;50.596;30.466;2022-10-16T07:36:26;100724.98;;;12.86;47.03
63883;BME280;50047;50.596;30.466;2022-10-16T07:38:54;100722.78;;;12.90;46.94
63883;BME280;50047;50.596;30.466;2022-10-16T07:41:26;100721.80;;;12.99;46.90
63883;BME280;50047;50.596;30.466;2022-10-16T07:43:54;100717.23;;;13.09;46.61
63883;BME280;50047;50.596;30.466;2022-10-16T07:46:23;100715.91;;;13.18;46.66
63883;BME280;50047;50.596;30.466;2022-10-16T07:48:50;100714.73;;;13.20;46.51
63883;BME280;50047;50.596;30.466;2022-10-16T07:51:19;100719.23;;;13.27;46.40
63883;BME280;50047;50.596;30.466;2022-10-16T07:53:47;100723.88;;;13.31;46.22
63883;BME280;50047;50.596;30.466;2022-10-16T07:56:15;100718.16;;;13.46;46.04
63883;BME280;50047;50.596;30.466;2022-10-16T07:58:43;100717.77;;;13.49;46.04
63883;BME280;50047;50.596;30.466;2022-10-16T08:01:12;100722.98;;;13.61;45.87
63883;BME280;50047;50.596;30.466;2022-10-16T08:03:50;100718.42;;;13.67;45.67
63883;BME280;50047;50.596;30.466;2022-10-16T08:06:20;100717.38;;;13.64;45.44
63883;BME280;50047;50.596;30.466;2022-10-16T08:08:54;100721.59;;;13.76;45.48
63883;BME280;50047;50.596;30.466;2022-10-16T08:11:22;100723.91;;;13.88;45.10
63883;BME280;50047;50.596;30.466;2022-10-16T08:13:50;100727.18;;;13.98;45.13
63883;BME280;50047;50.596;30.466;2022-10-16T08:16:17;100728.48;;;14.02;44.70
63883;BME280;50047;50.596;30.466;2022-10-16T08:18:44;100725.51;;;14.10;44.31
63883;BME280;50047;50.596;30.466;2022-10-16T08:21:16;100726.95;;;14.16;43.61
63883;BME280;50047;50.596;30.466;2022-10-16T08:23:48;100726.65;;;14.27;43.27
63883;BME280;50047;50.596;30.466;2022-10-16T08:26:24;100727.41;;;14.40;43.24
63883;BME280;50047;50.596;30.466;2022-10-16T08:28:52;100723.24;;;14.50;42.78
63883;BME280;50047;50.596;30.466;2022-10-16T08:31:19;100721.55;;;14.46;42.99
63883;BME280;50047;50.596;30.466;2022-10-16T08:33:47;100720.91;;;14.42;42.38
63883;BME280;50047;50.596;30.466;2022-10-16T08:36:15;100724.55;;;14.48;42.60
63883;BME280;50047;50.596;30.466;2022-10-16T08:38:43;100730.83;;;14.62;42.39
63883;BME280;50047;50.596;30.466;2022-10-16T08:49:03;100725.07;;;14.66;41.74
63883;BME280;50047;50.596;30.466;2022-10-16T08:51:36;100725.33;;;14.65;41.06
63883;BME280;50047;50.596;30.466;2022-10-16T08:54:36;100722.98;;;14.71;40.87
63883;BME280;50047;50.596;30.466;2022-10-16T08:57:11;100724.81;;;14.73;40.65
63883;BME280;50047;50.596;30.466;2022-10-16T08:59:39;100723.36;;;14.82;40.52
63883;BME280;50047;50.596;30.466;2022-10-16T09:02:35;100719.65;;;14.89;40.35
63883;BME280;50047;50.596;30.466;2022-10-16T09:11:18;100727.34;;;15.32;39.14
63883;BME280;50047;50.596;30.466;2022-10-16T09:16:47;100730.73;;;15.39;39.12
63883;BME280;50047;50.596;30.466;2022-10-16T09:19:42;100734.52;;;15.49;39.09
63883;BME280;50047;50.596;30.466;2022-10-16T09:22:16;100734.15;;;15.49;38.86
63883;BME280;50047;50.596;30.466;2022-10-16T09:24:43;100730.91;;;15.40;39.03
63883;BME280;50047;50.596;30.466;2022-10-16T09:27:14;100732.58;;;15.42;39.15
63883;BME280;50047;50.596;30.466;2022-10-16T09:29:42;100732.29;;;15.40;38.68
63883;BME280;50047;50.596;30.466;2022-10-16T09:32:12;100728.13;;;15.32;38.46
63883;BME280;50047;50.596;30.466;2022-10-16T09:34:45;100733.59;;;15.39;38.52
63883;BME280;50047;50.596;30.466;2022-10-16T09:37:17;100725.44;;;15.47;38.56
63883;BME280;50047;50.596;30.466;2022-10-16T09:39:50;100713.67;;;15.44;38.39
63883;BME280;50047;50.596;30.466;2022-10-16T09:42:26;100715.95;;;15.35;38.08
63883;BME280;50047;50.596;30.466;2022-10-16T09:44:57;100712.84;;;15.46;38.04
63883;BME280;50047;50.596;30.466;2022-10-16T09:47:26;100701.86;;;15.58;37.92
63883;BME280;50047;50.596;30.466;2022-10-16T09:50:05;100701.77;;;15.64;37.56
63883;BME280;50047;50.596;30.466;2022-10-16T09:52:33;100698.92;;;15.70;37.67
63883;BME280;50047;50.596;30.466;2022-10-16T09:55:02;100699.71;;;15.77;37.72
63883;BME280;50047;50.596;30.466;2022-10-16T09:57:30;100698.81;;;15.75;37.86
63883;BME280;50047;50.596;30.466;2022-10-16T09:59:58;100697.00;;;15.80;37.89
63883;BME280;50047;50.596;30.466;2022-10-16T10:02:30;100695.30;;;15.83;38.00
63883;BME280;50047;50.596;30.466;2022-10-16T10:04:58;100685.73;;;15.84;38.11
63883;BME280;50047;50.596;30.466;2022-10-16T10:07:27;100678.30;;;15.94;37.86
63883;BME280;50047;50.596;30.466;2022-10-16T10:09:57;100674.42;;;16.00;37.99
63883;BME280;50047;50.596;30.466;2022-10-16T10:12:27;100671.42;;;16.01;38.19
63883;BME280;50047;50.596;30.466;2022-10-16T10:14:56;100663.75;;;15.95;37.92
63883;BME280;50047;50.596;30.466;2022-10-16T10:17:28;100666.71;;;15.98;38.34
63883;BME280;50047;50.596;30.466;2022-10-16T10:20:00;100663.06;;;16.08;37.91
63883;BME280;50047;50.596;30.466;2022-10-16T10:22:45;100666.46;;;16.11;38.10
63883;BME280;50047;50.596;30.466;2022-10-16T10:36:57;100658.45;;;16.13;37.96
63883;BME280;50047;50.596;30.466;2022-10-16T10:39:32;100654.14;;;16.23;38.05
63883;BME280;50047;50.596;30.466;2022-10-16T10:44:56;100651.92;;;16.23;37.67
63883;BME280;50047;50.596;30.466;2022-10-16T10:50:24;100657.23;;;16.27;37.58
63883;BME280;50047;50.596;30.466;2022-10-16T10:55:51;100668.23;;;16.30;37.44
63883;BME280;50047;50.596;30.466;2022-10-16T11:09:47;100664.50;;;16.26;36.50
63883;BME280;50047;50.596;30.466;2022-10-16T11:12:21;100665.30;;;16.29;36.63
63883;BME280;50047;50.596;30.466;2022-10-16T11:17:30;100674.27;;;16.28;36.42
63883;BME280;50047;50.596;30.466;2022-10-16T11:20:14;100676.70;;;16.32;36.41
63883;BME280;50047;50.596;30.466;2022-10-16T11:22:50;100677.42;;;16.34;36.66
63883;BME280;50047;50.596;30.466;2022-10-16T11:25:26;100681.42;;;16.34;35.75
63883;BME280;50047;50.596;30.466;2022-10-16T11:30:50;100691.66;;;16.39;35.81
63883;BME280;50047;50.596;30.466;2022-10-16T11:36:09;100687.20;;;16.47;36.16
63883;BME280;50047;50.596;30.466;2022-10-16T11:39:29;100691.66;;;16.43;35.99
63883;BME280;50047;50.596;30.466;2022-10-16T11:53:02;100679.84;;;16.56;35.90
63883;BME280;50047;50.596;30.466;2022-10-16T11:55:40;100681.02;;;16.56;35.81
63883;BME280;50047;50.596;30.466;2022-10-16T11:58:32;100679.77;;;16.65;35.66
63883;BME280;50047;50.596;30.466;2022-10-16T12:01:19;100675.85;;;16.67;35.91
63883;BME280;50047;50.596;30.466;2022-10-16T12:04:05;100675.75;;;16.61;36.10
63883;BME280;50047;50.596;30.466;2022-10-16T12:07:10;100678.89;;;16.58;36.19
63883;BME280;50047;50.596;30.466;2022-10-16T12:09:41;100683.93;;;16.55;35.75
63883;BME280;50047;50.596;30.466;2022-10-16T12:12:38;100688.77;;;16.60;36.07
63883;BME280;50047;50.596;30.466;2022-10-16T12:15:27;100687.61;;;16.66;35.79
63883;BME280;50047;50.596;30.466;2022-10-16T12:18:23;100682.20;;;16.62;35.86
63883;BME280;50047;50.596;30.466;2022-10-16T12:20:58;100686.91;;;16.66;35.89
63883;BME280;50047;50.596;30.466;2022-10-16T12:23:32;100684.37;;;16.66;35.56
63883;BME280;50047;50.596;30.466;2022-10-16T12:26:00;100687.23;;;16.64;35.88
63883;BME280;50047;50.596;30.466;2022-10-16T12:28:31;100686.46;;;16.58;35.34
63883;BME280;50047;50.596;30.466;2022-10-16T12:31:02;100683.58;;;16.53;35.24
63883;BME280;50047;50.596;30.466;2022-10-16T12:33:33;100684.02;;;16.55;35.49
63883;BME280;50047;50.596;30.466;2022-10-16T12:36:05;100680.56;;;16.54;35.74
63883;BME280;50047;50.596;30.466;2022-10-16T12:38:53;100676.77;;;16.56;35.55
63883;BME280;50047;50.596;30.466;2022-10-16T12:41:32;100676.20;;;16.59;35.43
63883;BME280;50047;50.596;30.466;2022-10-16T12:44:00;100678.19;;;16.61;35.65
63883;BME280;50047;50.596;30.466;2022-10-16T12:49:21;100678.10;;;16.49;35.58
63883;BME280;50047;50.596;30.466;2022-10-16T12:51:48;100671.77;;;16.45;35.44
63883;BME280;50047;50.596;30.466;2022-10-16T12:54:20;100666.56;;;16.37;35.07
63883;BME280;50047;50.596;30.466;2022-10-16T13:00:04;100666.17;;;16.39;35.52
63883;BME280;50047;50.596;30.466;2022-10-16T13:06:01;100666.37;;;16.48;35.21
63883;BME280;50047;50.596;30.466;2022-10-16T13:22:59;100642.42;;;16.27;35.23
63883;BME280;50047;50.596;30.466;2022-10-16T13:26:00;100641.17;;;16.26;35.25
63883;BME280;50047;50.596;30.466;2022-10-16T13:28:34;100633.87;;;16.21;35.23
63883;BME280;50047;50.596;30.466;2022-10-16T13:31:02;100633.70;;;16.15;35.05
63883;BME280;50047;50.596;30.466;2022-10-16T13:36:03;100628.08;;;16.15;35.37
63883;BME280;50047;50.596;30.466;2022-10-16T13:38:35;100624.64;;;16.09;35.14
63883;BME280;50047;50.596;30.466;2022-10-16T13:41:04;100617.29;;;16.04;35.39
63883;BME280;50047;50.596;30.466;2022-10-16T13:43:53;100614.55;;;16.00;35.24
63883;BME280;50047;50.596;30.466;2022-10-16T13:46:21;100610.92;;;15.96;35.43
63883;BME280;50047;50.596;30.466;2022-10-16T13:49:03;100611.35;;;15.86;35.52
63883;BME280;50047;50.596;30.466;2022-10-16T13:51:32;100611.13;;;15.92;35.68
63883;BME280;50047;50.596;30.466;2022-10-16T13:53:59;100612.54;;;15.85;35.76
63883;BME280;50047;50.596;30.466;2022-10-16T13:56:29;100614.59;;;15.88;35.84
63883;BME280;50047;50.596;30.466;2022-10-16T13:59:22;100616.61;;;15.85;35.68
63883;BME280;50047;50.596;30.466;2022-10-16T14:01:51;100619.29;;;15.82;36.01
63883;BME280;50047;50.596;30.466;2022-10-16T14:04:20;100624.20;;;15.78;36.10
63883;BME280;50047;50.596;30.466;2022-10-16T14:06:50;100622.06;;;15.77;36.45
63883;BME280;50047;50.596;30.466;2022-10-16T14:09:28;100616.51;;;15.77;35.97
63883;BME280;50047;50.596;30.466;2022-10-16T14:12:17;100615.30;;;15.64;36.44
63883;BME280;50047;50.596;30.466;2022-10-16T14:14:47;100620.10;;;15.61;36.35
63883;BME280;50047;50.596;30.466;2022-10-16T14:17:19;100624.27;;;15.55;36.44
63883;BME280;50047;50.596;30.466;2022-10-16T14:19:52;100632.08;;;15.55;36.25
63883;BME280;50047;50.596;30.466;2022-10-16T14:22:35;100636.92;;;15.52;36.58
63883;BME280;50047;50.596;30.466;2022-10-16T14:25:35;100641.55;;;15.49;36.49
63883;BME280;50047;50.596;30.466;2022-10-16T14:28:13;100648.32;;;15.47;36.67
63883;BME280;50047;50.596;30.466;2022-10-16T14:30:59;100654.34;;;15.43;36.94
63883;BME280;50047;50.596;30.466;2022-10-16T14:36:16;100658.80;;;15.35;37.10
63883;BME280;50047;50.596;30.466;2022-10-16T14:39:04;100666.77;;;15.24;37.37
63883;BME280;50047;50.596;30.466;2022-10-16T14:41:33;100671.07;;;15.13;37.56
63883;BME280;50047;50.596;30.466;2022-10-16T14:44:03;100680.06;;;15.08;37.72
63883;BME280;50047;50.596;30.466;2022-10-16T14:46:39;100683.58;;;14.99;38.07
63883;BME280;50047;50.596;30.466;2022-10-16T14:51:38;100695.14;;;14.80;38.41
63883;BME280;50047;50.596;30.466;2022-10-16T14:54:12;100706.49;;;14.71;38.79
63883;BME280;50047;50.596;30.466;2022-10-16T14:56:57;100711.96;;;14.60;38.93
63883;BME280;50047;50.596;30.466;2022-10-16T14:59:40;100718.84;;;14.48;39.11
63883;BME280;50047;50.596;30.466;2022-10-16T15:04:48;100719.92;;;14.31;39.35